LFRS Airport Information

Runway Information
Runway 03 Length 9514 ft width 148 ft
Elevation 73 ft Threshold 0 ft Heading 28
Runway 21 Length 9514 ft Width 148 ft
Elevation 86 ft Threshold 694 ft Heading 208
Airport Frequencies
Type APP Name APP Frequency 130.275 MHZ
Type ATIS Name ATIS Frequency 126.925 MHZ
Type GND Name GND Frequency 121.875 MHZ
Type INFO Name INFO Frequency 129.875 MHZ
Type TWR Name TWR Frequency 118.65 MHZ
Airport Navaids
Type NDB Name Nantes Frequency 369 KHZ
Type VOR-DME Name Nantes Frequency 115500 KHZ
Airport Weather Information & NOTAM
ADDS - METARS form results

(1216 UTC 22 October 2019)
Data provider http://aviationweather.gov/metar/data/
 
METAR text: LFRS 221200Z AUTO 04006KT 010V070 9999 FEW022 15/10 Q1022 NOSIG
Conditions at: LFRS (NANTES/CHATEAU B, FR) observed 1200 UTC 22 October 2019
Temperature: 15.0°C (59°F)
Dewpoint: 10.0°C (50°F) [RH = 72%]
Pressure (altimeter): 30.18 inches Hg (1022.0 mb)
Winds: from the NE (40 degrees) at 7 MPH (6 knots; 3.1 m/s)
Visibility: 6 or more miles (10+ km)
Ceiling: at least 12,000 feet AGL
Clouds: few clouds at 2200 feet AGL
Weather: no significant weather observed at this time

METAR text: LFRS 221130Z AUTO 04006KT 360V070 CAVOK 15/10 Q1023 NOSIG
Conditions at: LFRS (NANTES/CHATEAU B, FR) observed 1130 UTC 22 October 2019
Temperature: 15.0°C (59°F)
Dewpoint: 10.0°C (50°F) [RH = 72%]
Pressure (altimeter): 30.21 inches Hg (1023.0 mb)
Winds: from the NE (40 degrees) at 7 MPH (6 knots; 3.1 m/s)
Visibility: 6 or more miles (10+ km)
Ceiling: ceiling and visibility are OK
Clouds: unknown
Weather: no significant weather observed at this time

Forecast for: LFRS (NANTES/CHATEAU B, FR)
Text: TAF LFRS 221100Z 2212/2318 06007KT CAVOK
Forecast period: 1200 to 2000 UTC 22 October 2019
Forecast type: FROM: standard forecast or significant change
Winds: from the ENE (60 degrees) at 8 MPH (7 knots; 3.6 m/s)
Visibility: 6 or more miles 10+ km)
Ceiling: unknown
Clouds: missing
Weather: NSW  (no significant weather)
Text: BECMG 2220/2222 -RA
Forecast period: 2000 UTC 22 October 2019 to 1800 UTC 23 October 2019
Forecast type: BECOMING: Conditions expected to become as follows by 2200 UTC 22 October 2019
Winds: from the ENE (60 degrees) at 8 MPH (7 knots; 3.6 m/s)
Visibility: 6 or more miles 10+ km)
Ceiling: unknown
Clouds: missing
Weather: -RA  (light rain)
Text: TEMPO 2222/2318 3000 DZRA BKN008
Forecast period: 2200 UTC 22 October 2019 to 1800 UTC 23 October 2019
Forecast type: TEMPORARY: The following changes expected for less than half the time period
Visibility: 1.86 miles (2.99 km)
Ceiling: 800 feet AGL
Clouds: broken clouds at 800 feet AGL
Weather: DZ RA  (moderate drizzle, moderate rain)